Time;durP1;ratioP1;P1;durP2;ratioP2;P2;SDS_P1;SDS_P2;PMS_P1;PMS_P2;Temp;Humidity;BMP_temperature;BMP_pressure;BME280_temperature;BME280_humidity;BME280_pressure;Samples;Min_cycle;Max_cycle;Signal;HPM_P1;HPM_P2
2021/04/17 00:02:06;;;;;;;10.97;6.47;;;;;;;;;;5093379;28;20487;-73
2021/04/17 00:04:32;;;;;;;9.20;6.93;;;;;;;;;;5091313;28;20816;-73
2021/04/17 00:06:59;;;;;;;10.73;7.50;;;;;;;;;;5075447;28;20446;-72
2021/04/17 00:09:26;;;;;;;12.23;7.17;;;;;;;;;;5093707;28;20825;-72
2021/04/17 00:11:56;;;;;;;9.93;6.33;;;;;;;;;;5094529;28;20407;-73
2021/04/17 00:14:29;;;;;;;10.30;7.87;;;;;;;;;;5092875;28;20445;-72
2021/04/17 00:16:55;;;;;;;7.70;5.67;;;;;;;;;;5094985;28;20409;-73
2021/04/17 00:19:21;;;;;;;9.33;5.90;;;;;;;;;;5093735;28;20421;-73
2021/04/17 00:21:48;;;;;;;11.23;7.43;;;;;;;;;;5094853;28;20425;-71
2021/04/17 00:24:14;;;;;;;10.40;6.90;;;;;;;;;;5093421;28;20453;-71
2021/04/17 00:26:40;;;;;;;10.80;8.10;;;;;;;;;;5094597;28;20448;-71
2021/04/17 00:29:06;;;;;;;12.47;7.83;;;;;;;;;;5093191;28;20429;-71
2021/04/17 00:31:33;;;;;;;12.10;7.87;;;;;;;;;;5094149;28;20815;-72
2021/04/17 00:33:59;;;;;;;10.63;6.33;;;;;;;;;;5090137;28;20487;-73
2021/04/17 00:36:25;;;;;;;11.43;7.37;;;;;;;;;;5094344;28;20400;-72
2021/04/17 00:38:51;;;;;;;11.90;9.10;;;;;;;;;;5093022;28;20507;-72
2021/04/17 00:41:18;;;;;;;14.07;7.70;;;;;;;;;;5094107;28;20759;-72
2021/04/17 00:43:44;;;;;;;15.87;9.90;;;;;;;;;;5092915;28;20463;-72
2021/04/17 00:46:10;;;;;;;12.87;8.30;;;;;;;;;;5093809;28;20528;-72
2021/04/17 00:48:36;;;;;;;9.67;6.80;;;;;;;;;;5092939;28;20911;-71
2021/04/17 00:51:02;;;;;;;11.67;7.93;;;;;;;;;;5094105;28;20419;-71
2021/04/17 00:53:28;;;;;;;13.73;8.93;;;;;;;;;;5091185;28;20466;-71
2021/04/17 00:55:54;;;;;;;12.53;7.97;;;;;;;;;;5094083;28;20426;-71
2021/04/17 00:58:20;;;;;;;13.50;7.77;;;;;;;;;;5074851;28;20509;-71
2021/04/17 01:00:46;;;;;;;11.00;6.80;;;;;;;;;;5093766;28;20525;-72
2021/04/17 01:03:17;;;;;;;12.80;7.60;;;;;;;;;;5093377;28;20420;-71
2021/04/17 01:05:44;;;;;;;12.43;7.87;;;;;;;;;;5092454;28;20434;-71
2021/04/17 01:08:18;;;;;;;15.10;8.37;;;;;;;;;;5092718;28;20449;-71
2021/04/17 01:10:46;;;;;;;13.70;8.40;;;;;;;;;;5092680;28;20432;-71
2021/04/17 01:13:13;;;;;;;13.23;8.73;;;;;;;;;;5071243;22;20497;-69
2021/04/17 01:15:39;;;;;;;12.20;8.30;;;;;;;;;;5053470;28;20402;-70
2021/04/17 01:18:06;;;;;;;13.40;8.77;;;;;;;;;;5053207;28;20392;-69
2021/04/17 01:20:34;;;;;;;13.70;9.20;;;;;;;;;;5053241;28;20858;-70
2021/04/17 01:23:09;;;;;;;13.40;8.20;;;;;;;;;;5053409;28;20437;-70
2021/04/17 01:25:48;;;;;;;14.73;9.13;;;;;;;;;;5053048;28;20424;-70
2021/04/17 01:28:15;;;;;;;15.47;10.17;;;;;;;;;;5052367;28;20894;-70
2021/04/17 01:30:42;;;;;;;13.43;9.23;;;;;;;;;;5033476;28;20426;-70
2021/04/17 01:33:08;;;;;;;14.30;8.67;;;;;;;;;;5034695;28;20474;-70
2021/04/17 01:35:34;;;;;;;15.43;8.30;;;;;;;;;;5052675;28;20458;-70
2021/04/17 01:38:07;;;;;;;16.50;9.40;;;;;;;;;;5053401;28;20396;-69
2021/04/17 01:40:34;;;;;;;17.03;9.10;;;;;;;;;;5052303;28;20931;-70
2021/04/17 01:43:00;;;;;;;16.20;9.70;;;;;;;;;;5053249;28;20914;-70
2021/04/17 01:45:27;;;;;;;13.83;9.37;;;;;;;;;;5053551;28;20426;-70
2021/04/17 01:47:54;;;;;;;13.63;8.20;;;;;;;;;;5056005;28;20551;-70
2021/04/17 01:50:22;;;;;;;18.70;10.13;;;;;;;;;;5037949;28;20435;-70
2021/04/17 01:52:48;;;;;;;15.30;9.03;;;;;;;;;;5058082;28;20424;-70
2021/04/17 01:55:15;;;;;;;16.23;9.70;;;;;;;;;;5055295;28;20918;-70
2021/04/17 01:57:42;;;;;;;15.23;8.97;;;;;;;;;;5057263;28;20828;-70
2021/04/17 02:00:08;;;;;;;17.50;9.50;;;;;;;;;;5056023;28;20488;-70
2021/04/17 02:02:34;;;;;;;19.20;9.80;;;;;;;;;;5054300;28;20461;-69
2021/04/17 02:05:01;;;;;;;13.70;9.93;;;;;;;;;;5038208;28;20441;-70
2021/04/17 02:07:27;;;;;;;17.93;8.47;;;;;;;;;;5056830;28;20537;-70
2021/04/17 02:09:53;;;;;;;16.47;9.80;;;;;;;;;;5055863;28;20432;-70
2021/04/17 02:12:19;;;;;;;13.40;7.83;;;;;;;;;;5056619;28;20442;-70
2021/04/17 02:14:45;;;;;;;14.50;8.73;;;;;;;;;;5055627;28;20434;-70
2021/04/17 02:17:11;;;;;;;13.27;8.90;;;;;;;;;;5056638;28;20405;-70
2021/04/17 02:19:46;;;;;;;15.90;8.87;;;;;;;;;;5055574;28;20441;-70
2021/04/17 02:22:13;;;;;;;14.33;8.73;;;;;;;;;;5056822;28;20429;-69
2021/04/17 02:24:39;;;;;;;17.47;9.30;;;;;;;;;;5055737;28;20810;-70
2021/04/17 02:27:06;;;;;;;14.70;8.53;;;;;;;;;;5056493;28;20442;-70
2021/04/17 02:29:33;;;;;;;14.50;8.50;;;;;;;;;;5055531;28;20801;-70
2021/04/17 02:31:59;;;;;;;15.30;9.33;;;;;;;;;;5055138;28;20443;-70
2021/04/17 02:34:26;;;;;;;17.23;10.20;;;;;;;;;;5055374;28;20436;-69
2021/04/17 02:36:52;;;;;;;15.33;8.93;;;;;;;;;;5056383;28;20398;-69
2021/04/17 02:39:19;;;;;;;16.50;9.83;;;;;;;;;;5055768;28;20418;-69
2021/04/17 02:41:46;;;;;;;13.23;8.60;;;;;;;;;;5056181;28;20451;-69
2021/04/17 02:44:12;;;;;;;16.83;9.87;;;;;;;;;;5055447;28;20436;-70
2021/04/17 02:46:38;;;;;;;13.83;8.70;;;;;;;;;;5056169;28;20911;-70
2021/04/17 02:49:04;;;;;;;16.37;9.13;;;;;;;;;;5055598;28;20426;-70
2021/04/17 02:51:30;;;;;;;14.97;8.83;;;;;;;;;;5056484;28;20506;-70
2021/04/17 02:53:56;;;;;;;14.43;9.47;;;;;;;;;;5053802;28;20426;-70
2021/04/17 02:56:22;;;;;;;16.03;9.50;;;;;;;;;;5057248;28;20542;-70
2021/04/17 02:58:48;;;;;;;15.77;8.97;;;;;;;;;;5058404;28;20770;-70
2021/04/17 03:01:14;;;;;;;15.10;9.13;;;;;;;;;;5054598;28;20431;-69
2021/04/17 03:03:40;;;;;;;19.50;9.80;;;;;;;;;;5055573;28;20490;-69
2021/04/17 03:06:06;;;;;;;17.73;9.87;;;;;;;;;;5055512;28;20428;-70
2021/04/17 03:08:33;;;;;;;16.10;10.03;;;;;;;;;;5055686;28;20450;-70
2021/04/17 03:10:59;;;;;;;14.77;9.63;;;;;;;;;;5055053;28;20434;-70
2021/04/17 03:13:26;;;;;;;15.30;9.70;;;;;;;;;;5055684;28;20508;-69
2021/04/17 03:15:52;;;;;;;16.70;9.50;;;;;;;;;;5054991;28;20429;-70
2021/04/17 03:18:18;;;;;;;14.40;9.57;;;;;;;;;;5055902;28;20811;-70
2021/04/17 03:20:44;;;;;;;17.70;10.60;;;;;;;;;;5054598;28;20436;-70
2021/04/17 03:23:10;;;;;;;15.10;8.70;;;;;;;;;;5055622;28;20431;-69
2021/04/17 03:25:36;;;;;;;14.70;9.83;;;;;;;;;;5053199;28;20435;-69
2021/04/17 03:28:02;;;;;;;13.77;8.97;;;;;;;;;;5055752;28;20511;-70
2021/04/17 03:30:29;;;;;;;14.70;9.13;;;;;;;;;;5054541;28;20437;-70
2021/04/17 03:32:58;;;;;;;17.67;10.33;;;;;;;;;;5055636;28;20441;-70
2021/04/17 03:35:25;;;;;;;19.93;8.83;;;;;;;;;;5055265;28;20531;-69
2021/04/17 03:37:51;;;;;;;15.70;10.27;;;;;;;;;;5055995;28;20489;-70
2021/04/17 03:40:17;;;;;;;17.70;10.63;;;;;;;;;;5039084;28;20424;-69
2021/04/17 03:42:43;;;;;;;17.80;10.80;;;;;;;;;;5037360;28;20445;-70
2021/04/17 03:45:10;;;;;;;13.77;8.63;;;;;;;;;;5050275;28;20436;-70
2021/04/17 03:47:36;;;;;;;14.90;9.43;;;;;;;;;;5055369;28;20449;-70
2021/04/17 03:50:03;;;;;;;13.93;8.83;;;;;;;;;;5053971;28;20439;-70
2021/04/17 03:52:29;;;;;;;16.37;10.53;;;;;;;;;;5055137;28;20430;-69
2021/04/17 03:54:55;;;;;;;13.40;9.40;;;;;;;;;;5054048;28;20433;-68
2021/04/17 03:57:21;;;;;;;20.10;9.83;;;;;;;;;;5054860;28;20909;-68
2021/04/17 03:59:47;;;;;;;16.90;10.30;;;;;;;;;;5052986;28;20438;-68
2021/04/17 04:02:13;;;;;;;14.00;9.90;;;;;;;;;;5053518;28;20434;-68
2021/04/17 04:04:40;;;;;;;17.70;8.93;;;;;;;;;;5053834;28;20467;-68
2021/04/17 04:07:06;;;;;;;14.10;8.70;;;;;;;;;;5054297;28;20935;-68
2021/04/17 04:09:32;;;;;;;17.77;9.90;;;;;;;;;;5052381;28;20455;-68
2021/04/17 04:11:58;;;;;;;11.73;8.53;;;;;;;;;;5054560;28;20452;-68
2021/04/17 04:14:25;;;;;;;18.97;10.60;;;;;;;;;;5053208;28;20446;-68
2021/04/17 04:16:51;;;;;;;15.53;9.67;;;;;;;;;;5054897;28;20407;-68
2021/04/17 04:19:17;;;;;;;18.90;10.93;;;;;;;;;;5053872;28;20444;-68
2021/04/17 04:21:43;;;;;;;22.07;12.33;;;;;;;;;;5054416;28;20935;-69
2021/04/17 04:24:10;;;;;;;19.20;11.03;;;;;;;;;;5053493;28;20402;-68
2021/04/17 04:26:36;;;;;;;21.30;11.90;;;;;;;;;;5054487;28;20932;-68
2021/04/17 04:29:02;;;;;;;20.13;11.63;;;;;;;;;;5054497;28;20402;-69
2021/04/17 04:31:28;;;;;;;25.97;12.33;;;;;;;;;;5053084;28;20558;-69
2021/04/17 04:33:54;;;;;;;21.93;11.37;;;;;;;;;;5052489;28;20430;-69
2021/04/17 04:36:20;;;;;;;21.77;11.33;;;;;;;;;;5028177;28;20454;-68
2021/04/17 04:38:46;;;;;;;20.50;12.53;;;;;;;;;;5035705;28;20399;-69
2021/04/17 04:41:12;;;;;;;19.80;10.20;;;;;;;;;;5052978;28;20517;-68
2021/04/17 04:43:39;;;;;;;22.10;12.17;;;;;;;;;;5054183;28;20410;-69
2021/04/17 04:46:05;;;;;;;24.30;12.73;;;;;;;;;;5052736;28;20441;-70
2021/04/17 04:48:31;;;;;;;18.67;11.33;;;;;;;;;;5053777;28;20542;-70
2021/04/17 04:50:57;;;;;;;22.30;10.90;;;;;;;;;;5052728;28;20493;-69
2021/04/17 04:53:23;;;;;;;13.90;9.80;;;;;;;;;;5054134;28;20416;-69
2021/04/17 04:55:49;;;;;;;16.03;10.30;;;;;;;;;;5053144;28;20517;-69
2021/04/17 04:58:15;;;;;;;14.23;10.33;;;;;;;;;;5052792;28;20437;-69
2021/04/17 05:00:41;;;;;;;20.07;11.50;;;;;;;;;;5052728;28;21048;-69
2021/04/17 05:03:07;;;;;;;21.30;12.70;;;;;;;;;;5036168;28;20980;-69
2021/04/17 05:05:34;;;;;;;23.73;11.93;;;;;;;;;;5040219;28;20424;-69
2021/04/17 05:08:00;;;;;;;19.97;11.40;;;;;;;;;;5056046;28;20498;-69
2021/04/17 05:10:26;;;;;;;21.03;13.10;;;;;;;;;;5054577;28;20423;-69
2021/04/17 05:12:52;;;;;;;21.73;12.00;;;;;;;;;;5054409;28;20537;-69
2021/04/17 05:15:18;;;;;;;16.90;10.10;;;;;;;;;;5053846;28;20442;-69
2021/04/17 05:17:44;;;;;;;20.80;11.13;;;;;;;;;;5054836;28;20418;-69
2021/04/17 05:20:10;;;;;;;16.00;9.83;;;;;;;;;;5035387;28;20450;-69
2021/04/17 05:22:36;;;;;;;15.73;10.60;;;;;;;;;;5056611;28;20478;-69
2021/04/17 05:25:03;;;;;;;18.87;11.10;;;;;;;;;;5055062;28;20405;-69
2021/04/17 05:27:29;;;;;;;21.47;12.10;;;;;;;;;;5053965;28;20807;-69
2021/04/17 05:29:55;;;;;;;18.60;10.50;;;;;;;;;;5052461;28;20503;-68
2021/04/17 05:32:21;;;;;;;17.23;11.43;;;;;;;;;;5051599;28;20438;-69
2021/04/17 05:34:47;;;;;;;20.27;11.70;;;;;;;;;;5053579;28;20399;-69
2021/04/17 05:37:14;;;;;;;18.33;10.93;;;;;;;;;;5053324;28;20511;-69
2021/04/17 05:39:40;;;;;;;21.07;11.20;;;;;;;;;;5054507;28;20404;-69
2021/04/17 05:42:06;;;;;;;17.30;9.63;;;;;;;;;;5053445;28;20481;-69
2021/04/17 05:44:32;;;;;;;18.27;10.67;;;;;;;;;;5053543;28;20403;-69
2021/04/17 05:46:58;;;;;;;17.60;10.07;;;;;;;;;;5052427;28;20454;-68
2021/04/17 05:49:24;;;;;;;18.57;12.07;;;;;;;;;;5053514;28;20423;-70
2021/04/17 05:51:50;;;;;;;24.13;12.80;;;;;;;;;;5051689;28;20836;-70
2021/04/17 05:54:17;;;;;;;19.17;12.03;;;;;;;;;;5053237;28;20433;-70
2021/04/17 05:56:44;;;;;;;24.30;12.63;;;;;;;;;;5052467;28;20439;-70
2021/04/17 05:59:10;;;;;;;18.37;11.03;;;;;;;;;;5053437;28;20408;-70
2021/04/17 06:01:36;;;;;;;20.47;12.10;;;;;;;;;;5052520;28;20750;-70
2021/04/17 06:04:02;;;;;;;20.70;10.87;;;;;;;;;;5054053;28;20494;-70
2021/04/17 06:06:28;;;;;;;19.30;11.87;;;;;;;;;;5034640;28;20436;-70
2021/04/17 06:08:54;;;;;;;19.37;11.33;;;;;;;;;;5051701;28;20456;-70
2021/04/17 06:11:20;;;;;;;19.17;11.50;;;;;;;;;;5050695;28;20431;-71
2021/04/17 06:13:47;;;;;;;20.83;12.63;;;;;;;;;;5053450;28;20739;-70
2021/04/17 06:16:13;;;;;;;21.60;13.40;;;;;;;;;;5052488;28;20431;-70
2021/04/17 06:18:39;;;;;;;22.13;12.98;;;;;;;;;;5055300;28;20427;-71
2021/04/17 06:21:06;;;;;;;20.63;12.80;;;;;;;;;;5048666;28;20519;-69
2021/04/17 06:23:32;;;;;;;20.03;12.20;;;;;;;;;;5052918;28;20957;-70
2021/04/17 06:25:59;;;;;;;17.13;11.10;;;;;;;;;;5035230;28;20428;-68
2021/04/17 06:28:25;;;;;;;19.70;11.43;;;;;;;;;;5053479;28;20439;-69
2021/04/17 06:30:51;;;;;;;17.83;11.87;;;;;;;;;;5051618;28;20424;-69
2021/04/17 06:33:17;;;;;;;23.17;14.25;;;;;;;;;;5051128;28;20439;-69
2021/04/17 06:35:44;;;;;;;18.27;12.27;;;;;;;;;;5055652;28;20837;-67
2021/04/17 06:38:13;;;;;;;24.23;16.10;;;;;;;;;;5055671;28;20430;-69
2021/04/17 06:40:39;;;;;;;22.03;13.97;;;;;;;;;;5051126;28;20923;-70
2021/04/17 06:43:05;;;;;;;26.10;15.17;;;;;;;;;;5037742;28;20521;-70
2021/04/17 06:45:34;;;;;;;24.50;13.50;;;;;;;;;;5053873;28;20767;-70
2021/04/17 06:48:00;;;;;;;23.00;13.77;;;;;;;;;;5055856;28;20447;-70
2021/04/17 06:50:26;;;;;;;24.70;14.20;;;;;;;;;;5037556;28;20433;-71
2021/04/17 06:52:53;;;;;;;20.43;12.33;;;;;;;;;;5054615;28;20435;-71
2021/04/17 06:55:19;;;;;;;21.87;12.93;;;;;;;;;;5054836;28;20899;-71
2021/04/17 06:57:45;;;;;;;21.40;13.80;;;;;;;;;;5055503;28;20496;-71
2021/04/17 07:00:14;;;;;;;20.20;13.23;;;;;;;;;;5054846;28;20912;-71
2021/04/17 07:02:45;;;;;;;21.30;12.03;;;;;;;;;;5045260;28;20986;-71
2021/04/17 07:05:11;;;;;;;20.37;13.57;;;;;;;;;;5052875;28;20412;-70
2021/04/17 07:07:37;;;;;;;19.33;12.17;;;;;;;;;;5054357;28;20460;-71
2021/04/17 07:10:03;;;;;;;18.30;12.63;;;;;;;;;;5056221;28;20437;-71
2021/04/17 07:12:29;;;;;;;22.47;13.70;;;;;;;;;;5071532;22;20495;-70
2021/04/17 07:14:56;;;;;;;20.27;11.67;;;;;;;;;;5050918;28;20419;-71
2021/04/17 07:17:22;;;;;;;19.67;13.47;;;;;;;;;;5072895;28;20417;-71
2021/04/17 07:19:51;;;;;;;21.30;14.00;;;;;;;;;;5057023;28;20878;-71
2021/04/17 07:22:20;;;;;;;23.63;12.77;;;;;;;;;;5064984;28;20913;-71
2021/04/17 07:24:47;;;;;;;18.93;12.73;;;;;;;;;;5055649;28;20490;-71
2021/04/17 07:27:31;;;;;;;24.53;13.57;;;;;;;;;;5073947;28;20460;-70
2021/04/17 07:29:58;;;;;;;19.50;12.17;;;;;;;;;;5074805;28;20398;-72
2021/04/17 07:32:24;;;;;;;21.67;13.07;;;;;;;;;;5055823;28;20438;-72
2021/04/17 07:35:09;;;;;;;22.10;14.00;;;;;;;;;;5074690;28;20394;-72
2021/04/17 07:37:36;;;;;;;20.80;13.13;;;;;;;;;;5074015;28;20893;-72
2021/04/17 07:40:20;;;;;;;22.60;13.60;;;;;;;;;;5074490;28;20414;-72
2021/04/17 07:42:55;;;;;;;20.70;13.20;;;;;;;;;;5071240;28;20442;-72
2021/04/17 07:45:28;;;;;;;20.70;12.73;;;;;;;;;;5074607;28;20390;-72
2021/04/17 07:47:55;;;;;;;23.67;14.53;;;;;;;;;;5072615;28;20472;-72
2021/04/17 07:50:21;;;;;;;22.47;13.33;;;;;;;;;;5056348;28;20908;-72
2021/04/17 07:52:49;;;;;;;22.17;12.97;;;;;;;;;;5065379;28;20520;-72
2021/04/17 07:55:17;;;;;;;22.37;13.50;;;;;;;;;;5074401;28;20451;-72
2021/04/17 07:57:44;;;;;;;20.67;12.43;;;;;;;;;;5055402;28;20422;-73
2021/04/17 08:00:11;;;;;;;19.73;12.40;;;;;;;;;;5074094;28;20399;-72
2021/04/17 08:02:38;;;;;;;21.20;12.30;;;;;;;;;;5073250;28;20518;-72
2021/04/17 08:05:05;;;;;;;19.70;12.47;;;;;;;;;;5074114;28;20414;-72
2021/04/17 08:07:33;;;;;;;16.90;11.10;;;;;;;;;;5073277;28;20557;-72
2021/04/17 08:10:00;;;;;;;18.13;11.63;;;;;;;;;;5073926;28;20395;-73
2021/04/17 08:12:26;;;;;;;18.53;11.60;;;;;;;;;;5072764;28;20570;-73
2021/04/17 08:14:52;;;;;;;18.73;12.60;;;;;;;;;;5073732;28;20405;-73
2021/04/17 08:17:18;;;;;;;17.63;11.10;;;;;;;;;;5071973;28;20432;-73
2021/04/17 08:19:44;;;;;;;18.93;12.50;;;;;;;;;;5073718;28;20394;-73
2021/04/17 08:22:10;;;;;;;16.87;11.77;;;;;;;;;;5071714;28;20512;-72
2021/04/17 08:24:37;;;;;;;18.00;13.23;;;;;;;;;;5073354;28;20479;-72
2021/04/17 08:27:03;;;;;;;17.00;11.50;;;;;;;;;;5072499;28;20611;-72
2021/04/17 08:29:48;;;;;;;17.17;12.27;;;;;;;;;;5055142;28;20412;-72
2021/04/17 08:32:23;;;;;;;16.43;11.60;;;;;;;;;;5072371;28;20960;-72
2021/04/17 08:35:04;;;;;;;17.73;11.43;;;;;;;;;;5073382;28;20433;-72
2021/04/17 08:37:31;;;;;;;18.13;12.13;;;;;;;;;;5072558;28;20422;-72
2021/04/17 08:39:58;;;;;;;16.80;11.23;;;;;;;;;;5073123;28;20758;-72
2021/04/17 08:42:50;;;;;;;20.93;12.40;;;;;;;;;;5070148;28;20449;-71
2021/04/17 08:45:17;;;;;;;21.50;13.00;;;;;;;;;;5073376;28;20380;-71
2021/04/17 08:47:43;;;;;;;18.10;11.73;;;;;;;;;;5072309;28;20468;-71
2021/04/17 08:50:26;;;;;;;18.07;12.10;;;;;;;;;;5072945;28;20426;-71
2021/04/17 08:52:57;;;;;;;15.57;11.83;;;;;;;;;;5072094;28;20449;-71
2021/04/17 08:55:23;;;;;;;19.27;11.93;;;;;;;;;;5053655;28;20430;-71
2021/04/17 08:58:16;;;;;;;17.80;11.60;;;;;;;;;;5071988;28;20511;-71
2021/04/17 09:01:05;;;;;;;14.20;9.83;;;;;;;;;;5068240;28;20424;-72
2021/04/17 09:03:37;;;;;;;15.20;10.30;;;;;;;;;;5058048;28;20515;-70
2021/04/17 09:06:03;;;;;;;15.60;10.20;;;;;;;;;;5072578;28;20406;-71
2021/04/17 09:08:30;;;;;;;15.80;10.73;;;;;;;;;;5069575;28;20554;-71
2021/04/17 09:10:56;;;;;;;11.50;9.93;;;;;;;;;;5069062;28;20436;-71
2021/04/17 09:13:22;;;;;;;16.00;9.60;;;;;;;;;;5070805;28;20550;-71
2021/04/17 09:15:55;;;;;;;13.77;10.37;;;;;;;;;;5071769;28;20509;-71
2021/04/17 09:18:34;;;;;;;13.80;9.90;;;;;;;;;;5071888;28;20468;-71
2021/04/17 09:21:20;;;;;;;14.57;9.40;;;;;;;;;;5072950;28;20389;-71
2021/04/17 09:23:49;;;;;;;14.73;10.60;;;;;;;;;;5052928;28;20552;-71
2021/04/17 09:26:33;;;;;;;12.97;9.60;;;;;;;;;;5072572;28;20502;-71
2021/04/17 09:28:59;;;;;;;10.00;7.97;;;;;;;;;;5053325;28;20457;-71
2021/04/17 09:31:25;;;;;;;9.67;6.93;;;;;;;;;;5072515;28;20413;-71
2021/04/17 09:34:01;;;;;;;11.00;8.23;;;;;;;;;;5071336;28;20453;-71
2021/04/17 09:36:27;;;;;;;11.10;8.60;;;;;;;;;;5072319;28;20401;-71
2021/04/17 09:38:53;;;;;;;10.70;8.47;;;;;;;;;;5069912;28;20464;-71
2021/04/17 09:41:19;;;;;;;17.90;7.27;;;;;;;;;;5072495;28;20487;-71
2021/04/17 09:43:53;;;;;;;10.40;7.87;;;;;;;;;;5071499;28;20546;-71
2021/04/17 09:46:20;;;;;;;13.00;8.33;;;;;;;;;;5072321;28;20460;-71
2021/04/17 09:48:47;;;;;;;12.50;7.37;;;;;;;;;;5072145;28;20495;-72
2021/04/17 09:51:24;;;;;;;10.30;7.30;;;;;;;;;;5055017;28;20506;-72
2021/04/17 09:53:51;;;;;;;9.73;7.83;;;;;;;;;;5072078;28;20450;-71
2021/04/17 09:56:46;;;;;;;13.37;7.33;;;;;;;;;;5072264;28;20538;-71
2021/04/17 09:59:17;;;;;;;9.43;7.57;;;;;;;;;;5055337;28;20479;-71
2021/04/17 10:01:53;;;;;;;12.97;8.97;;;;;;;;;;5069765;28;20428;-71
2021/04/17 10:04:20;;;;;;;9.63;7.40;;;;;;;;;;5055001;28;20433;-72
2021/04/17 10:06:55;;;;;;;11.33;8.00;;;;;;;;;;5075000;28;20452;-71
2021/04/17 10:09:21;;;;;;;9.83;8.50;;;;;;;;;;5076655;28;20421;-70
2021/04/17 10:11:48;;;;;;;11.30;7.30;;;;;;;;;;5076412;28;20468;-71
2021/04/17 10:14:15;;;;;;;12.10;6.80;;;;;;;;;;5073937;28;20485;-71
2021/04/17 10:16:46;;;;;;;11.70;7.13;;;;;;;;;;5073910;28;20433;-72
2021/04/17 10:19:13;;;;;;;9.13;6.87;;;;;;;;;;5076373;28;20742;-72
2021/04/17 10:21:40;;;;;;;10.97;7.07;;;;;;;;;;5075184;28;20429;-71
2021/04/17 10:24:21;;;;;;;11.17;7.00;;;;;;;;;;5076242;28;20415;-72
2021/04/17 10:26:50;;;;;;;9.90;7.80;;;;;;;;;;5056834;28;20426;-71
2021/04/17 10:29:16;;;;;;;14.83;8.20;;;;;;;;;;5076186;28;20829;-71
2021/04/17 10:31:42;;;;;;;12.10;8.00;;;;;;;;;;5073772;28;20434;-72
2021/04/17 10:34:08;;;;;;;12.43;7.07;;;;;;;;;;5075975;28;20408;-71
2021/04/17 10:36:34;;;;;;;9.67;6.70;;;;;;;;;;5074816;28;20435;-71
2021/04/17 10:39:07;;;;;;;10.47;7.37;;;;;;;;;;5075583;28;20884;-71
2021/04/17 10:41:34;;;;;;;10.70;7.13;;;;;;;;;;5074597;28;20443;-70
2021/04/17 10:44:08;;;;;;;11.03;6.60;;;;;;;;;;5074548;28;20468;-71
2021/04/17 10:47:02;;;;;;;8.90;7.10;;;;;;;;;;5075268;28;20435;-71
2021/04/17 10:49:33;;;;;;;9.83;7.00;;;;;;;;;;5072853;28;20443;-71
2021/04/17 10:52:00;;;;;;;8.83;6.10;;;;;;;;;;5075356;28;20436;-71
2021/04/17 10:54:26;;;;;;;11.03;6.33;;;;;;;;;;5075684;28;20424;-71
2021/04/17 10:57:00;;;;;;;9.97;7.73;;;;;;;;;;5055688;28;20962;-72
2021/04/17 10:59:26;;;;;;;11.03;6.17;;;;;;;;;;5075438;28;20369;-71
2021/04/17 11:01:52;;;;;;;7.93;6.10;;;;;;;;;;5074443;28;20447;-71
2021/04/17 11:04:18;;;;;;;10.37;6.80;;;;;;;;;;5075150;28;20453;-71
2021/04/17 11:06:48;;;;;;;10.10;6.43;;;;;;;;;;5072842;28;20584;-71
2021/04/17 11:09:19;;;;;;;9.83;6.60;;;;;;;;;;5075117;28;20396;-71
2021/04/17 11:11:59;;;;;;;8.70;5.80;;;;;;;;;;5074047;28;20424;-71
2021/04/17 11:14:26;;;;;;;9.80;6.10;;;;;;;;;;5075374;28;20385;-71
2021/04/17 11:16:53;;;;;;;8.43;5.90;;;;;;;;;;5073700;28;20434;-71
2021/04/17 11:19:22;;;;;;;8.70;5.87;;;;;;;;;;5075337;28;20411;-71
2021/04/17 11:22:04;;;;;;;7.00;4.90;;;;;;;;;;5073571;28;20827;-71
2021/04/17 11:24:30;;;;;;;9.37;6.20;;;;;;;;;;5075044;28;20590;-71
2021/04/17 11:26:56;;;;;;;8.30;6.73;;;;;;;;;;5073886;28;20438;-71
2021/04/17 11:29:22;;;;;;;8.83;6.30;;;;;;;;;;5074898;28;20406;-72
2021/04/17 11:31:48;;;;;;;9.50;7.20;;;;;;;;;;5073575;28;20547;-72
2021/04/17 11:34:17;;;;;;;9.73;7.00;;;;;;;;;;5074887;28;20400;-72
2021/04/17 11:36:43;;;;;;;8.27;6.33;;;;;;;;;;5073916;28;20401;-72
2021/04/17 11:39:09;;;;;;;10.60;7.23;;;;;;;;;;5074499;28;20490;-71
2021/04/17 11:41:35;;;;;;;10.93;5.93;;;;;;;;;;5073221;28;20407;-71
2021/04/17 11:44:02;;;;;;;8.00;6.07;;;;;;;;;;5072914;28;20412;-71
2021/04/17 11:46:28;;;;;;;8.80;6.30;;;;;;;;;;5073934;28;20415;-71
2021/04/17 11:48:54;;;;;;;10.23;6.10;;;;;;;;;;5072976;28;20490;-72
2021/04/17 11:51:21;;;;;;;7.83;5.33;;;;;;;;;;5056033;28;20489;-71
2021/04/17 11:53:47;;;;;;;7.93;5.10;;;;;;;;;;5073127;28;20442;-71
2021/04/17 11:56:14;;;;;;;8.83;6.93;;;;;;;;;;5073860;28;20407;-71
2021/04/17 11:58:40;;;;;;;8.20;5.73;;;;;;;;;;5073092;28;20432;-71
2021/04/17 12:01:06;;;;;;;10.60;5.80;;;;;;;;;;5073119;28;20407;-71
2021/04/17 12:03:32;;;;;;;15.37;6.43;;;;;;;;;;5072726;28;20445;-72
2021/04/17 12:05:58;;;;;;;9.80;5.80;;;;;;;;;;5074077;28;20496;-72
2021/04/17 12:08:25;;;;;;;7.90;5.90;;;;;;;;;;5072965;28;20654;-71
2021/04/17 12:10:51;;;;;;;8.60;6.83;;;;;;;;;;5060744;28;20424;-72
2021/04/17 12:13:17;;;;;;;8.37;5.57;;;;;;;;;;5066324;28;20554;-71
2021/04/17 12:15:47;;;;;;;9.77;6.00;;;;;;;;;;5069713;28;20425;-71
2021/04/17 12:18:13;;;;;;;11.37;6.30;;;;;;;;;;5072026;28;20998;-70
2021/04/17 12:20:39;;;;;;;11.10;5.87;;;;;;;;;;5071555;28;20416;-70
2021/04/17 12:23:05;;;;;;;10.17;6.67;;;;;;;;;;5072117;28;20450;-70
2021/04/17 12:25:32;;;;;;;11.93;7.13;;;;;;;;;;5072364;28;20467;-70
2021/04/17 12:27:58;;;;;;;12.90;7.70;;;;;;;;;;5071503;28;20460;-70
2021/04/17 12:30:24;;;;;;;9.17;6.97;;;;;;;;;;5053628;28;20436;-70
2021/04/17 12:32:52;;;;;;;10.60;8.10;;;;;;;;;;5070655;28;20490;-69
2021/04/17 12:35:20;;;;;;;10.77;8.50;;;;;;;;;;5070782;28;20416;-72
2021/04/17 12:37:47;;;;;;;15.37;8.70;;;;;;;;;;5071780;28;20426;-70
2021/04/17 12:40:13;;;;;;;11.77;8.83;;;;;;;;;;5072959;28;20924;-70
2021/04/17 12:42:39;;;;;;;14.53;8.33;;;;;;;;;;5071511;28;20847;-70
2021/04/17 12:45:06;;;;;;;10.80;7.93;;;;;;;;;;5072714;28;20454;-70
2021/04/17 12:47:32;;;;;;;11.30;8.50;;;;;;;;;;5069912;28;20508;-71
2021/04/17 12:49:58;;;;;;;13.73;8.63;;;;;;;;;;5054420;28;20420;-69
2021/04/17 12:52:24;;;;;;;10.03;7.73;;;;;;;;;;5071008;28;20899;-71
2021/04/17 12:54:51;;;;;;;10.20;8.27;;;;;;;;;;5072261;28;20432;-70
2021/04/17 12:57:17;;;;;;;11.90;9.13;;;;;;;;;;5069639;28;20423;-72
2021/04/17 12:59:43;;;;;;;11.90;8.27;;;;;;;;;;5066273;28;20414;-71
2021/04/17 13:02:10;;;;;;;11.20;7.90;;;;;;;;;;5067040;28;20433;-73
2021/04/17 13:04:36;;;;;;;11.67;8.37;;;;;;;;;;5038400;28;20942;-72
2021/04/17 13:07:03;;;;;;;10.27;7.37;;;;;;;;;;5070115;28;20725;-72
2021/04/17 13:09:29;;;;;;;12.93;8.33;;;;;;;;;;5071394;28;20426;-71
2021/04/17 13:11:55;;;;;;;12.90;6.77;;;;;;;;;;5067110;28;20441;-73
2021/04/17 13:14:22;;;;;;;10.20;7.60;;;;;;;;;;5078678;22;20504;-73
2021/04/17 13:16:48;;;;;;;12.93;6.87;;;;;;;;;;5061476;28;20442;-69
2021/04/17 13:19:14;;;;;;;9.13;7.00;;;;;;;;;;5058886;28;20421;-71
2021/04/17 13:21:41;;;;;;;12.10;7.27;;;;;;;;;;5064606;28;20420;-71
2021/04/17 13:24:07;;;;;;;8.97;6.20;;;;;;;;;;5052759;28;20433;-71
2021/04/17 13:26:33;;;;;;;10.90;7.40;;;;;;;;;;5051669;28;20920;-71
2021/04/17 13:28:59;;;;;;;8.03;7.17;;;;;;;;;;5050965;28;20462;-72
2021/04/17 13:31:25;;;;;;;11.30;6.80;;;;;;;;;;5050979;28;20465;-72
2021/04/17 13:33:51;;;;;;;11.33;8.60;;;;;;;;;;5050830;28;20506;-73
2021/04/17 13:36:17;;;;;;;12.33;8.13;;;;;;;;;;5051187;28;20419;-73
2021/04/17 13:38:43;;;;;;;10.67;8.97;;;;;;;;;;5048424;28;20931;-71
2021/04/17 13:41:09;;;;;;;9.53;6.70;;;;;;;;;;5037966;28;20894;-73
2021/04/17 13:43:36;;;;;;;10.00;8.20;;;;;;;;;;5053725;28;20456;-72
2021/04/17 13:46:02;;;;;;;12.83;7.60;;;;;;;;;;5056859;28;20418;-75
2021/04/17 13:48:28;;;;;;;9.97;8.13;;;;;;;;;;5034450;28;20445;-71
2021/04/17 13:50:54;;;;;;;10.40;8.20;;;;;;;;;;5056274;28;20416;-70
2021/04/17 13:53:20;;;;;;;11.53;8.40;;;;;;;;;;5055420;28;20563;-70
2021/04/17 13:55:47;;;;;;;11.00;8.10;;;;;;;;;;5055938;28;20416;-71
2021/04/17 13:58:14;;;;;;;11.60;8.60;;;;;;;;;;5054431;28;20525;-71
2021/04/17 14:00:40;;;;;;;9.63;7.10;;;;;;;;;;5056325;28;20483;-71
2021/04/17 14:03:06;;;;;;;10.17;7.83;;;;;;;;;;5054736;28;20460;-72
2021/04/17 14:05:33;;;;;;;9.77;7.03;;;;;;;;;;5049758;28;20414;-72
2021/04/17 14:08:00;;;;;;;11.00;8.23;;;;;;;;;;5053310;28;20495;-72
2021/04/17 14:10:26;;;;;;;13.43;8.30;;;;;;;;;;5042852;28;20425;-72
2021/04/17 14:12:53;;;;;;;9.07;7.47;;;;;;;;;;5054755;28;20547;-72
2021/04/17 14:15:19;;;;;;;10.50;8.70;;;;;;;;;;5056261;28;20511;-73
2021/04/17 14:17:45;;;;;;;9.03;7.90;;;;;;;;;;5056555;28;20767;-73
2021/04/17 14:20:12;;;;;;;11.53;8.73;;;;;;;;;;5055033;28;20809;-73
2021/04/17 14:22:38;;;;;;;11.33;8.40;;;;;;;;;;5056077;28;21011;-73
2021/04/17 14:25:05;;;;;;;10.60;7.70;;;;;;;;;;5055085;28;20417;-73
2021/04/17 14:27:31;;;;;;;11.60;7.73;;;;;;;;;;5055829;28;20456;-74
2021/04/17 14:29:57;;;;;;;12.63;9.63;;;;;;;;;;5054776;28;20428;-73